Time;durP1;ratioP1;P1;durP2;ratioP2;P2;SDS_P1;SDS_P2;PMS_P1;PMS_P2;Temp;Humidity;BMP_temperature;BMP_pressure;BME280_temperature;BME280_humidity;BME280_pressure;Samples;Min_cycle;Max_cycle;Signal;HPM_P1;HPM_P2
2023/02/23 00:01:52;;;;;;;47.23;42.40;;;7.90;99.90;;;;;;5052806;28;20491;-75
2023/02/23 00:04:23;;;;;;;47.70;42.70;;;7.90;99.90;;;;;;5051594;28;20449;-75
2023/02/23 00:06:52;;;;;;;48.97;43.87;;;7.90;99.90;;;;;;5052841;28;20414;-74
2023/02/23 00:09:23;;;;;;;50.23;44.93;;;7.90;99.90;;;;;;5053038;28;20445;-74
2023/02/23 00:11:53;;;;;;;44.63;40.30;;;7.90;99.90;;;;;;5051457;28;20465;-75
2023/02/23 00:14:26;;;;;;;47.53;42.73;;;7.90;99.90;;;;;;5052573;28;20498;-75
2023/02/23 00:16:54;;;;;;;48.03;43.23;;;7.90;99.90;;;;;;5051440;28;20444;-73
2023/02/23 00:19:24;;;;;;;48.33;43.27;;;7.90;99.90;;;;;;5051639;28;20476;-75
2023/02/23 00:21:53;;;;;;;47.37;42.27;;;7.90;99.90;;;;;;5053931;28;20464;-75
2023/02/23 00:24:22;;;;;;;48.83;43.70;;;7.90;99.90;;;;;;5055118;28;20460;-75
2023/02/23 00:26:50;;;;;;;49.70;44.57;;;7.90;99.90;;;;;;5055123;28;20449;-74
2023/02/23 00:29:21;;;;;;;46.97;42.33;;;7.90;99.90;;;;;;5055134;28;20457;-75
2023/02/23 00:31:51;;;;;;;48.47;43.47;;;7.90;99.90;;;;;;5055015;28;20522;-75
2023/02/23 00:34:22;;;;;;;48.53;43.87;;;7.90;99.90;;;;;;5054892;28;20530;-75
2023/02/23 00:36:54;;;;;;;50.97;45.47;;;7.90;99.90;;;;;;5055512;28;20530;-75
2023/02/23 00:39:25;;;;;;;53.20;47.80;;;7.90;99.90;;;;;;5071544;28;20461;-73
2023/02/23 00:41:55;;;;;;;52.10;46.57;;;7.90;99.90;;;;;;5054762;28;20462;-75
2023/02/23 00:44:24;;;;;;;53.87;48.30;;;8.00;99.90;;;;;;5056015;28;20441;-75
2023/02/23 00:46:53;;;;;;;54.23;48.47;;;8.00;99.90;;;;;;5056342;28;21004;-75
2023/02/23 00:49:22;;;;;;;55.20;48.63;;;8.00;99.90;;;;;;5055954;28;20510;-74
2023/02/23 00:51:52;;;;;;;52.37;46.70;;;7.90;99.90;;;;;;5054632;28;21045;-73
2023/02/23 00:54:21;;;;;;;54.60;48.80;;;8.00;99.90;;;;;;5055815;28;20440;-74
2023/02/23 00:56:50;;;;;;;53.30;47.67;;;8.00;99.90;;;;;;5055957;28;21029;-75
2023/02/23 00:59:18;;;;;;;52.97;47.17;;;8.00;99.90;;;;;;5055803;28;20983;-74
2023/02/23 01:01:47;;;;;;;57.30;51.13;;;8.00;99.90;;;;;;5054424;28;20462;-75
2023/02/23 01:04:15;;;;;;;55.90;49.80;;;8.00;99.90;;;;;;5054388;28;20448;-74
2023/02/23 01:06:45;;;;;;;55.63;47.37;;;8.00;99.90;;;;;;5054349;28;20454;-74
2023/02/23 01:09:25;;;;;;;53.90;48.10;;;8.00;99.90;;;;;;5055523;28;20468;-74
2023/02/23 01:11:56;;;;;;;53.17;47.53;;;8.10;99.90;;;;;;5054280;28;20471;-75
2023/02/23 01:14:25;;;;;;;52.53;46.80;;;8.00;99.90;;;;;;5054095;28;20447;-74
2023/02/23 01:16:53;;;;;;;59.07;49.17;;;8.00;99.90;;;;;;5055630;28;20518;-75
2023/02/23 01:19:21;;;;;;;53.37;47.93;;;8.00;99.90;;;;;;5055365;28;20446;-73
2023/02/23 01:21:50;;;;;;;52.53;46.93;;;8.00;99.90;;;;;;5055447;28;20553;-74
2023/02/23 01:24:19;;;;;;;53.90;47.83;;;8.00;99.90;;;;;;5054089;28;20436;-74
2023/02/23 01:26:47;;;;;;;53.50;46.77;;;8.10;99.90;;;;;;5054020;28;20453;-74
2023/02/23 01:29:17;;;;;;;51.37;46.07;;;8.00;99.90;;;;;;5054002;28;20531;-73
2023/02/23 01:31:47;;;;;;;51.93;46.27;;;8.10;99.90;;;;;;5055097;28;20459;-75
2023/02/23 01:34:20;;;;;;;52.10;46.50;;;8.10;99.90;;;;;;5070060;28;20430;-74
2023/02/23 01:36:48;;;;;;;54.10;47.70;;;8.10;99.90;;;;;;5053821;28;20551;-75
2023/02/23 01:39:20;;;;;;;50.03;44.33;;;8.10;99.90;;;;;;5053795;28;20450;-75
2023/02/23 01:41:50;;;;;;;53.83;48.10;;;8.10;99.90;;;;;;5055014;28;20467;-75
2023/02/23 01:44:57;;;;;;;52.17;46.37;;;8.10;99.90;;;;;;5053811;28;20437;-75
2023/02/23 01:47:26;;;;;;;52.40;46.40;;;8.10;99.90;;;;;;5054950;28;20473;-75
2023/02/23 01:49:54;;;;;;;51.33;45.70;;;8.10;99.90;;;;;;5053875;28;20838;-75
2023/02/23 01:52:22;;;;;;;55.70;47.77;;;8.10;99.90;;;;;;5054655;28;20523;-75
2023/02/23 01:54:54;;;;;;;56.00;47.37;;;8.10;99.90;;;;;;5053460;28;20445;-74
2023/02/23 01:57:25;;;;;;;54.53;48.50;;;8.10;99.90;;;;;;5053579;28;20466;-75
2023/02/23 01:59:54;;;;;;;56.70;46.70;;;8.10;99.90;;;;;;5054694;28;20413;-74
2023/02/23 02:02:31;;;;;;;59.17;49.83;;;8.10;99.90;;;;;;5054520;28;20464;-75
2023/02/23 02:05:00;;;;;;;56.07;48.90;;;8.10;99.90;;;;;;5053344;28;20529;-74
2023/02/23 02:07:33;;;;;;;58.57;48.10;;;8.10;99.90;;;;;;5053157;28;20446;-75
2023/02/23 02:12:54;;;;;;;58.77;48.70;;;8.10;99.90;;;;;;5053105;28;21000;-75
2023/02/23 02:15:28;;;;;;;56.47;47.20;;;8.10;99.90;;;;;;5053367;28;20868;-75
2023/02/23 02:18:11;;;;;;;55.27;48.83;;;8.10;99.90;;;;;;5054415;28;20422;-75
2023/02/23 02:21:12;;;;;;;57.70;48.83;;;8.10;99.90;;;;;;5054460;28;20942;-75
2023/02/23 02:24:26;;;;;;;54.23;46.40;;;8.10;99.90;;;;;;5054554;28;20443;-75
2023/02/23 02:27:16;;;;;;;58.07;48.90;;;8.20;99.90;;;;;;5052954;28;20531;-75
2023/02/23 02:30:17;;;;;;;60.13;49.97;;;8.10;99.90;;;;;;5052897;28;20818;-75
2023/02/23 02:33:10;;;;;;;60.77;49.27;;;8.10;99.90;;;;;;5040320;28;20468;-75
2023/02/23 02:36:17;;;;;;;58.17;49.60;;;8.10;99.90;;;;;;5052677;28;20498;-75
2023/02/23 02:38:55;;;;;;;52.63;46.33;;;8.10;99.90;;;;;;5014673;28;20889;-75
2023/02/23 02:41:35;;;;;;;58.30;48.40;;;8.20;99.90;;;;;;5053787;28;20460;-75
2023/02/23 02:44:15;;;;;;;59.77;48.50;;;8.20;99.90;;;;;;5054149;28;20414;-75
2023/02/23 02:46:47;;;;;;;56.20;48.07;;;8.20;99.90;;;;;;5068391;28;20470;-75
2023/02/23 02:49:22;;;;;;;57.30;46.60;;;8.20;99.90;;;;;;5052423;28;20819;-74
2023/02/23 02:51:58;;;;;;;56.07;45.60;;;8.20;99.90;;;;;;5052407;28;20468;-74
2023/02/23 02:54:33;;;;;;;54.83;44.37;;;8.20;99.90;;;;;;5053941;28;20428;-75
2023/02/23 02:57:04;;;;;;;59.03;47.17;;;8.20;99.90;;;;;;5053864;28;20464;-75
2023/02/23 04:19:12;;;;;;;59.27;47.73;;;8.30;99.90;;;;;;5056591;28;20982;-75
2023/02/23 04:21:40;;;;;;;64.30;48.10;;;8.30;99.90;;;;;;5055223;28;20469;-75
2023/02/23 04:24:10;;;;;;;62.63;49.27;;;8.20;99.90;;;;;;5056463;28;20441;-75
2023/02/23 04:26:38;;;;;;;61.67;49.33;;;8.20;99.90;;;;;;5055092;28;20445;-75
2023/02/23 04:29:06;;;;;;;64.73;50.63;;;8.20;99.90;;;;;;5056340;28;20808;-75
2023/02/23 04:31:34;;;;;;;62.40;47.50;;;8.20;99.90;;;;;;5054960;28;20485;-75
2023/02/23 04:34:03;;;;;;;61.50;48.70;;;8.20;99.90;;;;;;5056435;28;20491;-75
2023/02/23 04:36:33;;;;;;;61.63;49.17;;;8.30;99.90;;;;;;5054866;28;20470;-75
2023/02/23 04:39:01;;;;;;;63.40;49.13;;;8.20;99.90;;;;;;5056311;28;20439;-75
2023/02/23 04:41:29;;;;;;;60.83;46.87;;;8.20;99.90;;;;;;5054800;28;20981;-75
2023/02/23 04:43:57;;;;;;;61.30;48.70;;;8.20;99.90;;;;;;5056052;28;21003;-75
2023/02/23 04:46:25;;;;;;;61.23;49.07;;;8.30;99.90;;;;;;5056025;28;20433;-75
2023/02/23 04:48:53;;;;;;;64.87;50.03;;;8.20;99.90;;;;;;5054741;28;20447;-75
2023/02/23 04:51:21;;;;;;;53.77;41.40;;;8.20;99.90;;;;;;5055865;28;20476;-75
2023/02/23 04:53:51;;;;;;;66.17;50.57;;;8.20;99.90;;;;;;5054640;28;20445;-75
2023/02/23 04:56:19;;;;;;;69.33;51.10;;;8.20;99.90;;;;;;5056060;28;20437;-75
2023/02/23 04:58:47;;;;;;;70.27;51.10;;;8.20;99.90;;;;;;5055820;28;21008;-75
2023/02/23 05:01:16;;;;;;;72.97;52.43;;;8.30;99.90;;;;;;5055756;28;20457;-75
2023/02/23 05:03:44;;;;;;;72.97;54.17;;;8.20;99.90;;;;;;5054452;28;20457;-75
2023/02/23 05:06:13;;;;;;;67.07;51.97;;;8.20;99.90;;;;;;5055700;28;20445;-75
2023/02/23 05:08:41;;;;;;;67.10;52.00;;;8.20;99.90;;;;;;5054659;28;20504;-75
2023/02/23 05:11:11;;;;;;;67.70;51.53;;;8.20;99.90;;;;;;5055518;28;20461;-75
2023/02/23 05:13:39;;;;;;;70.70;52.40;;;8.20;99.90;;;;;;5055471;28;20459;-75
2023/02/23 05:16:08;;;;;;;71.53;52.77;;;8.20;99.90;;;;;;5056015;28;20438;-75
2023/02/23 05:18:36;;;;;;;80.53;54.90;;;8.20;99.90;;;;;;5054280;28;20830;-75
2023/02/23 05:21:05;;;;;;;74.40;52.60;;;8.20;99.90;;;;;;5055634;28;20464;-75
2023/02/23 05:23:35;;;;;;;69.07;51.57;;;8.20;99.90;;;;;;5055440;28;20425;-75
2023/02/23 05:26:05;;;;;;;76.27;55.07;;;8.20;99.90;;;;;;5054088;28;20809;-75
2023/02/23 05:28:36;;;;;;;74.40;53.13;;;8.20;99.90;;;;;;5055229;28;20436;-75
2023/02/23 05:31:04;;;;;;;72.87;52.83;;;8.20;99.90;;;;;;5055173;28;20457;-75
2023/02/23 05:33:34;;;;;;;77.03;53.90;;;8.20;99.90;;;;;;5055189;28;20441;-75
2023/02/23 05:36:05;;;;;;;74.33;52.03;;;8.20;99.90;;;;;;5055142;28;20439;-75
2023/02/23 05:38:33;;;;;;;71.80;51.27;;;8.20;99.90;;;;;;5055130;28;20477;-76
2023/02/23 05:41:05;;;;;;;73.80;51.97;;;8.20;99.90;;;;;;5053702;28;20505;-75
2023/02/23 05:43:34;;;;;;;75.10;54.07;;;8.10;99.90;;;;;;5055045;28;20427;-75
2023/02/23 05:46:06;;;;;;;70.77;52.27;;;8.10;99.90;;;;;;5053655;28;20464;-76
2023/02/23 05:48:34;;;;;;;74.07;53.43;;;8.10;99.90;;;;;;5053698;28;20995;-76
2023/02/23 05:51:03;;;;;;;69.03;52.20;;;8.10;99.90;;;;;;5054746;28;20452;-76
2023/02/23 05:53:31;;;;;;;74.20;51.77;;;8.10;99.90;;;;;;5054853;28;20449;-76
2023/02/23 05:56:01;;;;;;;76.77;52.10;;;8.10;99.90;;;;;;5053543;28;20453;-76
2023/02/23 05:58:29;;;;;;;80.30;54.30;;;8.10;99.90;;;;;;5053310;28;20469;-76
2023/02/23 06:00:59;;;;;;;78.43;54.50;;;8.10;99.90;;;;;;5054543;28;20544;-76
2023/02/23 06:03:28;;;;;;;77.27;54.80;;;8.10;99.90;;;;;;5053366;28;20450;-76
2023/02/23 06:05:57;;;;;;;81.20;55.87;;;8.10;99.90;;;;;;5053477;28;20449;-76
2023/02/23 06:08:26;;;;;;;76.33;55.67;;;8.10;99.90;;;;;;5054526;28;20487;-76
2023/02/23 06:10:54;;;;;;;78.40;55.33;;;8.10;99.90;;;;;;5054367;28;20457;-76
2023/02/23 06:13:22;;;;;;;78.20;56.00;;;8.10;99.90;;;;;;5052984;28;20480;-76
2023/02/23 06:15:50;;;;;;;80.20;53.40;;;8.10;99.90;;;;;;5054485;28;20540;-76
2023/02/23 06:18:21;;;;;;;84.60;57.87;;;8.10;99.90;;;;;;5053057;28;20553;-76
2023/02/23 06:20:49;;;;;;;86.57;58.10;;;8.10;99.90;;;;;;5054171;28;20989;-77
2023/02/23 06:23:18;;;;;;;89.00;57.90;;;8.10;99.90;;;;;;5052974;28;20445;-76
2023/02/23 06:25:47;;;;;;;82.47;55.67;;;8.10;99.90;;;;;;5054121;28;20448;-76
2023/02/23 06:28:15;;;;;;;83.97;56.40;;;8.10;99.90;;;;;;5054293;28;20451;-76
2023/02/23 06:30:45;;;;;;;86.63;56.43;;;8.10;99.90;;;;;;5053946;28;20463;-76
2023/02/23 06:33:13;;;;;;;88.00;57.70;;;8.10;99.90;;;;;;5052756;28;20450;-76
2023/02/23 06:35:43;;;;;;;87.47;58.77;;;8.10;99.90;;;;;;5053098;28;20932;-76
2023/02/23 06:38:11;;;;;;;87.87;58.30;;;8.10;99.90;;;;;;5052781;28;20471;-76
2023/02/23 06:40:40;;;;;;;92.10;57.33;;;8.10;99.90;;;;;;5053949;28;20431;-76
2023/02/23 06:43:08;;;;;;;101.80;61.77;;;8.10;99.90;;;;;;5052677;28;20442;-76
2023/02/23 06:45:36;;;;;;;85.40;57.70;;;8.00;99.90;;;;;;5052668;28;20448;-76
2023/02/23 06:48:05;;;;;;;82.97;57.03;;;8.00;99.90;;;;;;5052586;28;20852;-76
2023/02/23 06:50:33;;;;;;;91.90;60.40;;;8.00;99.90;;;;;;5053663;28;20447;-76
2023/02/23 06:53:03;;;;;;;102.47;64.80;;;8.00;99.90;;;;;;5053724;28;20438;-76
2023/02/23 06:55:32;;;;;;;88.07;57.70;;;8.00;99.90;;;;;;5052660;28;20799;-76
2023/02/23 06:58:00;;;;;;;100.03;63.33;;;8.00;99.90;;;;;;5052285;28;20464;-77
2023/02/23 07:00:29;;;;;;;91.40;58.53;;;8.00;99.90;;;;;;5052239;28;20812;-76
2023/02/23 07:02:58;;;;;;;100.90;62.97;;;8.00;99.90;;;;;;5053574;28;20436;-76
2023/02/23 07:05:27;;;;;;;94.17;60.57;;;8.00;99.90;;;;;;5052308;28;21023;-76
2023/02/23 07:07:55;;;;;;;96.37;61.27;;;8.00;99.90;;;;;;5052502;28;20816;-76
2023/02/23 07:10:24;;;;;;;100.20;60.70;;;8.00;99.90;;;;;;5053539;28;20444;-76
2023/02/23 07:12:54;;;;;;;98.70;61.23;;;8.10;99.90;;;;;;5053227;28;20458;-76
2023/02/23 07:15:22;;;;;;;101.17;60.50;;;8.10;99.90;;;;;;5052127;28;20545;-76
2023/02/23 07:17:51;;;;;;;97.73;59.97;;;8.10;99.90;;;;;;5053355;28;20474;-76
2023/02/23 07:20:20;;;;;;;89.43;57.37;;;8.10;99.90;;;;;;5053303;28;20442;-76
2023/02/23 07:22:48;;;;;;;95.80;60.17;;;8.10;99.90;;;;;;5051870;28;20478;-76
2023/02/23 07:25:16;;;;;;;97.03;60.87;;;8.10;99.90;;;;;;5052019;28;21061;-76
2023/02/23 07:27:46;;;;;;;94.93;58.97;;;8.10;99.90;;;;;;5053299;28;20536;-76
2023/02/23 07:30:17;;;;;;;98.57;62.17;;;8.10;99.90;;;;;;5053182;28;20426;-76
2023/02/23 07:32:45;;;;;;;100.73;61.80;;;8.10;99.90;;;;;;5068353;28;20832;-76
2023/02/23 07:35:13;;;;;;;97.53;63.10;;;8.10;99.90;;;;;;5053203;28;20441;-76
2023/02/23 07:37:41;;;;;;;107.07;64.17;;;8.10;99.90;;;;;;5053359;28;20438;-76
2023/02/23 07:40:10;;;;;;;109.87;64.80;;;8.10;99.90;;;;;;5053405;28;20438;-76
2023/02/23 07:42:39;;;;;;;105.60;64.30;;;8.10;99.90;;;;;;5053062;28;20469;-76
2023/02/23 07:45:10;;;;;;;116.60;66.80;;;8.10;99.90;;;;;;5051724;28;20816;-76
2023/02/23 07:47:38;;;;;;;123.83;67.97;;;8.10;99.90;;;;;;5053217;28;20453;-76
2023/02/23 07:50:08;;;;;;;148.60;73.07;;;8.10;99.90;;;;;;5053012;28;20437;-76
2023/02/23 07:52:37;;;;;;;150.47;75.77;;;8.10;99.90;;;;;;5051872;28;20576;-76
2023/02/23 07:55:06;;;;;;;133.37;69.20;;;8.10;99.90;;;;;;5053054;28;20440;-76
2023/02/23 07:57:35;;;;;;;149.00;70.90;;;8.10;99.90;;;;;;5053529;28;20433;-76
2023/02/23 08:00:04;;;;;;;152.07;73.90;;;8.20;99.90;;;;;;5051695;28;20480;-76
2023/02/23 08:02:41;;;;;;;144.03;72.70;;;8.20;99.90;;;;;;5052943;28;20450;-76
2023/02/23 08:05:09;;;;;;;149.73;74.03;;;8.20;99.90;;;;;;5051733;28;20473;-76
2023/02/23 08:07:38;;;;;;;152.17;70.47;;;8.20;99.90;;;;;;5051553;28;20447;-76
2023/02/23 08:10:06;;;;;;;165.40;77.27;;;8.20;99.90;;;;;;5052086;28;20449;-76
2023/02/23 08:12:35;;;;;;;177.40;77.03;;;8.20;99.90;;;;;;5051357;28;20571;-76
2023/02/23 08:15:07;;;;;;;169.77;78.10;;;8.20;99.90;;;;;;5051650;28;20545;-76
2023/02/23 08:17:35;;;;;;;163.77;77.40;;;8.20;99.90;;;;;;5052048;28;20447;-76
2023/02/23 08:20:06;;;;;;;159.33;77.47;;;8.20;99.90;;;;;;5052979;28;20469;-76
2023/02/23 08:22:35;;;;;;;154.20;73.70;;;8.20;99.90;;;;;;5051385;28;20471;-76
2023/02/23 08:25:17;;;;;;;151.10;75.80;;;8.20;99.90;;;;;;5051488;28;20935;-76
2023/02/23 08:27:45;;;;;;;152.30;75.23;;;8.20;99.90;;;;;;5051405;28;20452;-76
2023/02/23 08:30:14;;;;;;;150.90;72.03;;;8.20;99.90;;;;;;5052971;28;20442;-76
2023/02/23 08:32:42;;;;;;;132.40;70.37;;;8.20;99.90;;;;;;5052561;28;20481;-76
2023/02/23 08:35:12;;;;;;;144.90;72.27;;;8.20;99.90;;;;;;5053154;28;20473;-76
2023/02/23 08:37:41;;;;;;;143.60;73.10;;;8.30;99.90;;;;;;5052720;28;20970;-76
2023/02/23 08:40:11;;;;;;;138.60;72.47;;;8.30;99.90;;;;;;5051260;28;20567;-76
2023/02/23 08:42:39;;;;;;;134.73;72.23;;;8.30;99.90;;;;;;5067885;28;20505;-76
2023/02/23 08:45:08;;;;;;;143.27;72.57;;;8.30;99.90;;;;;;5054114;28;20548;-76
2023/02/23 08:47:36;;;;;;;125.50;67.17;;;8.30;99.90;;;;;;5056031;28;20441;-76
2023/02/23 08:50:05;;;;;;;135.37;71.40;;;8.30;99.90;;;;;;5056354;28;20443;-76
2023/02/23 08:52:35;;;;;;;120.80;66.57;;;8.30;99.90;;;;;;5054740;28;20499;-76
2023/02/23 08:55:03;;;;;;;127.43;70.17;;;8.30;99.90;;;;;;5054703;28;20452;-76
2023/02/23 08:57:33;;;;;;;124.80;64.77;;;8.20;99.90;;;;;;5054627;28;20452;-76
2023/02/23 09:00:01;;;;;;;136.27;69.87;;;8.30;99.90;;;;;;5055696;28;20463;-76
2023/02/23 09:02:29;;;;;;;125.27;68.57;;;8.30;99.90;;;;;;5056125;28;20453;-77
2023/02/23 09:04:58;;;;;;;121.67;64.43;;;8.30;99.90;;;;;;5055787;28;20801;-77
2023/02/23 09:07:26;;;;;;;130.53;66.20;;;8.30;99.90;;;;;;5054513;28;20434;-76
2023/02/23 09:09:57;;;;;;;116.80;64.87;;;8.30;99.90;;;;;;5071141;28;20472;-76
2023/02/23 09:12:25;;;;;;;129.43;65.40;;;8.30;99.90;;;;;;5054267;28;20559;-76
2023/02/23 09:14:53;;;;;;;130.97;67.40;;;8.30;99.90;;;;;;5054345;28;20446;-76
2023/02/23 09:17:22;;;;;;;124.30;65.53;;;8.30;99.90;;;;;;5054265;28;20453;-76
2023/02/23 09:19:51;;;;;;;130.57;67.80;;;8.30;99.90;;;;;;5055505;28;20467;-76
2023/02/23 09:22:19;;;;;;;132.30;65.70;;;8.30;99.90;;;;;;5054100;28;20839;-76
2023/02/23 09:24:47;;;;;;;133.87;68.50;;;8.30;99.90;;;;;;5055235;28;20442;-76
2023/02/23 09:27:17;;;;;;;127.83;64.57;;;8.30;99.90;;;;;;5054063;28;20538;-76
2023/02/23 09:29:45;;;;;;;122.67;60.67;;;8.30;99.90;;;;;;5055466;28;20782;-76
2023/02/23 09:32:13;;;;;;;129.10;67.17;;;8.30;99.90;;;;;;5055322;28;20868;-76
2023/02/23 09:34:41;;;;;;;123.37;64.60;;;8.30;99.90;;;;;;5053965;28;20449;-76
2023/02/23 09:37:09;;;;;;;136.03;67.30;;;8.30;99.90;;;;;;5055398;28;20761;-76
2023/02/23 09:39:37;;;;;;;110.73;63.23;;;8.30;99.90;;;;;;5053814;28;20890;-77
2023/02/23 09:42:32;;;;;;;122.50;66.40;;;8.30;99.90;;;;;;5053679;28;20476;-76
2023/02/23 09:45:19;;;;;;;120.27;63.80;;;8.40;99.90;;;;;;5054805;28;20455;-76
2023/02/23 09:48:00;;;;;;;124.30;66.53;;;8.40;99.90;;;;;;5054740;28;20817;-77
2023/02/23 09:50:31;;;;;;;122.83;65.93;;;8.40;99.90;;;;;;5055228;28;20896;-76
2023/02/23 09:53:02;;;;;;;117.57;60.47;;;8.40;99.90;;;;;;5053641;28;20460;-76
2023/02/23 09:55:32;;;;;;;115.97;63.10;;;8.50;99.90;;;;;;5054749;28;20422;-76
2023/02/23 09:58:07;;;;;;;109.63;61.90;;;8.50;99.90;;;;;;5054721;28;20442;-76
2023/02/23 10:00:41;;;;;;;115.03;61.10;;;8.50;99.90;;;;;;5054594;28;20455;-76
2023/02/23 10:03:21;;;;;;;96.83;56.83;;;8.50;99.90;;;;;;5054992;28;20477;-76
2023/02/23 10:05:55;;;;;;;95.83;56.57;;;8.60;99.90;;;;;;5053487;28;20948;-77
2023/02/23 10:08:40;;;;;;;100.50;56.47;;;8.60;99.90;;;;;;5054578;28;20512;-76
2023/02/23 10:11:21;;;;;;;93.20;53.30;;;8.60;99.90;;;;;;5054689;28;20453;-76
2023/02/23 10:14:03;;;;;;;92.60;55.73;;;8.60;99.90;;;;;;5053199;28;20467;-77
2023/02/23 10:16:49;;;;;;;83.57;52.60;;;8.60;99.90;;;;;;5054669;28;20987;-76
2023/02/23 10:19:26;;;;;;;83.80;51.30;;;8.60;99.90;;;;;;5054322;28;20922;-76
2023/02/23 10:21:57;;;;;;;83.93;50.83;;;8.70;99.90;;;;;;5053187;28;20468;-76
2023/02/23 10:24:29;;;;;;;88.40;52.03;;;8.70;99.90;;;;;;5054281;28;20939;-76
2023/02/23 10:27:01;;;;;;;86.27;51.80;;;8.70;99.90;;;;;;5054473;28;20515;-76
2023/02/23 10:29:34;;;;;;;79.83;49.00;;;8.70;99.90;;;;;;5054248;28;20413;-76
2023/02/23 10:32:07;;;;;;;82.50;50.10;;;8.60;99.90;;;;;;5052892;28;20556;-76
2023/02/23 10:34:36;;;;;;;82.83;52.70;;;8.70;99.90;;;;;;5054634;28;20476;-76
2023/02/23 10:37:06;;;;;;;77.63;49.30;;;8.70;99.90;;;;;;5052681;28;20460;-76
2023/02/23 10:39:34;;;;;;;86.00;50.17;;;8.70;99.90;;;;;;5053981;28;20466;-76
2023/02/23 10:42:06;;;;;;;84.40;49.33;;;8.70;99.90;;;;;;5052676;28;20468;-76
2023/02/23 10:44:36;;;;;;;81.77;49.00;;;8.70;99.90;;;;;;5053961;28;20438;-76
2023/02/23 10:47:11;;;;;;;76.30;46.83;;;8.70;99.90;;;;;;5053969;28;20441;-76
2023/02/23 10:49:43;;;;;;;81.00;46.73;;;8.70;99.90;;;;;;5054167;28;20425;-76
2023/02/23 10:52:14;;;;;;;84.93;49.80;;;8.70;99.90;;;;;;5053778;28;20459;-76
2023/02/23 10:54:47;;;;;;;77.70;49.20;;;8.70;99.90;;;;;;5054278;28;20438;-77
2023/02/23 10:57:25;;;;;;;79.33;47.97;;;8.70;99.90;;;;;;5053992;28;20417;-76
2023/02/23 11:00:25;;;;;;;76.60;45.60;;;8.70;99.90;;;;;;5052441;28;20462;-76
2023/02/23 11:02:58;;;;;;;83.53;48.30;;;8.70;99.90;;;;;;5053871;28;20475;-76
2023/02/23 11:05:31;;;;;;;83.27;48.77;;;8.70;99.90;;;;;;5053871;28;20419;-76
2023/02/23 11:08:24;;;;;;;86.83;51.13;;;8.70;99.90;;;;;;5051652;28;20442;-76
2023/02/23 11:11:17;;;;;;;82.77;47.17;;;8.70;99.90;;;;;;5051806;28;20471;-76
2023/02/23 11:13:48;;;;;;;83.63;46.27;;;8.60;99.90;;;;;;5053463;28;20998;-76
2023/02/23 11:16:20;;;;;;;90.23;48.90;;;8.60;99.90;;;;;;5052465;28;20955;-76
2023/02/23 11:18:54;;;;;;;102.27;52.30;;;8.60;99.90;;;;;;5053373;28;20853;-76
2023/02/23 11:21:25;;;;;;;95.87;47.60;;;8.60;99.90;;;;;;5051965;28;20489;-76
2023/02/23 11:23:57;;;;;;;93.33;50.07;;;8.60;99.90;;;;;;5052060;28;20948;-77
2023/02/23 11:26:30;;;;;;;95.03;49.17;;;8.60;99.90;;;;;;5053771;28;20867;-77
2023/02/23 11:29:04;;;;;;;102.73;50.63;;;8.50;99.90;;;;;;5053916;28;20420;-76
2023/02/23 11:31:35;;;;;;;97.37;50.00;;;8.60;99.90;;;;;;5052140;28;20480;-76
2023/02/23 11:34:05;;;;;;;101.50;51.43;;;8.50;99.90;;;;;;5053637;28;20453;-76
2023/02/23 11:36:35;;;;;;;99.77;49.10;;;8.60;99.90;;;;;;5053239;28;20476;-76
2023/02/23 11:39:18;;;;;;;96.37;49.80;;;8.60;99.90;;;;;;5053144;28;20953;-76
2023/02/23 11:41:46;;;;;;;90.07;46.87;;;8.60;99.90;;;;;;5053038;28;20842;-76
2023/02/23 11:44:22;;;;;;;95.80;48.83;;;8.60;99.90;;;;;;5051909;28;20796;-76
2023/02/23 11:46:52;;;;;;;93.67;49.43;;;8.60;99.90;;;;;;5053170;28;20425;-76
2023/02/23 11:49:27;;;;;;;94.20;48.87;;;8.60;99.90;;;;;;5051878;28;20553;-77
2023/02/23 11:51:55;;;;;;;99.23;52.97;;;8.60;99.90;;;;;;5052577;28;20465;-76
2023/02/23 11:54:28;;;;;;;97.70;48.90;;;8.60;99.90;;;;;;5053090;28;20437;-76
2023/02/23 11:57:01;;;;;;;98.23;50.00;;;8.60;99.90;;;;;;5051993;28;20438;-76
2023/02/23 11:59:32;;;;;;;109.50;50.67;;;8.60;99.90;;;;;;5051765;28;20476;-76
2023/02/23 12:02:19;;;;;;;101.87;53.07;;;8.60;99.90;;;;;;5052830;28;20488;-76
2023/02/23 12:04:47;;;;;;;111.13;54.50;;;8.60;99.90;;;;;;5051675;28;20520;-76
2023/02/23 12:07:41;;;;;;;122.27;58.03;;;8.60;99.90;;;;;;5052919;28;20438;-76
2023/02/23 12:10:21;;;;;;;112.60;56.40;;;8.60;99.90;;;;;;5050474;28;20949;-76
2023/02/23 12:12:56;;;;;;;122.57;57.60;;;8.50;99.90;;;;;;5051343;28;20572;-76
2023/02/23 12:15:36;;;;;;;129.37;60.87;;;8.50;99.90;;;;;;5051592;28;20980;-76
2023/02/23 12:18:14;;;;;;;118.37;56.10;;;8.50;99.90;;;;;;5052899;28;20445;-77
2023/02/23 12:20:47;;;;;;;134.13;61.30;;;8.50;99.90;;;;;;5071959;28;20468;-77
2023/02/23 12:23:18;;;;;;;130.73;62.50;;;8.50;99.90;;;;;;5055587;28;21045;-75
2023/02/23 12:25:51;;;;;;;141.63;64.30;;;8.50;99.90;;;;;;5055336;28;20451;-75
2023/02/23 12:28:26;;;;;;;138.23;61.63;;;8.40;99.90;;;;;;5056883;28;20426;-77
2023/02/23 12:31:00;;;;;;;129.33;60.50;;;8.40;99.90;;;;;;5072260;28;20484;-76
2023/02/23 12:33:35;;;;;;;138.77;60.87;;;8.40;99.90;;;;;;5055533;28;20436;-76
2023/02/23 12:36:12;;;;;;;144.23;63.63;;;8.40;99.90;;;;;;5055291;28;20958;-76
2023/02/23 12:38:49;;;;;;;139.43;60.37;;;8.40;99.90;;;;;;5056407;28;20417;-76
2023/02/23 12:41:25;;;;;;;133.43;62.60;;;8.40;99.90;;;;;;5055247;28;21012;-77
2023/02/23 12:43:59;;;;;;;126.90;59.00;;;8.30;99.90;;;;;;5055379;28;20438;-76
2023/02/23 12:46:31;;;;;;;129.47;62.00;;;8.30;99.90;;;;;;5056816;28;20452;-76
2023/02/23 12:49:15;;;;;;;126.40;62.60;;;8.30;99.90;;;;;;5056694;28;20918;-76
2023/02/23 12:51:51;;;;;;;144.40;67.03;;;8.30;99.90;;;;;;5056837;28;20501;-77
2023/02/23 12:54:19;;;;;;;136.30;64.73;;;8.20;99.90;;;;;;5055291;28;20495;-77
2023/02/23 12:56:58;;;;;;;128.73;63.80;;;8.20;99.90;;;;;;5054815;28;20449;-77
2023/02/23 12:59:45;;;;;;;125.00;61.63;;;8.20;99.90;;;;;;5071514;28;20532;-75
2023/02/23 13:02:21;;;;;;;128.03;63.27;;;8.20;99.90;;;;;;5054697;28;20487;-76
2023/02/23 13:05:21;;;;;;;120.63;60.37;;;8.20;99.90;;;;;;5056896;28;20424;-76
2023/02/23 13:08:02;;;;;;;122.60;60.37;;;8.20;99.90;;;;;;5054603;28;20542;-75
2023/02/23 13:10:48;;;;;;;114.40;57.50;;;8.20;99.90;;;;;;5056010;28;20780;-77
2023/02/23 13:13:30;;;;;;;117.13;56.97;;;8.20;99.90;;;;;;5055770;28;20822;-75
2023/02/23 13:16:06;;;;;;;114.23;55.67;;;8.20;99.90;;;;;;5054357;28;20926;-77
2023/02/23 13:18:38;;;;;;;110.17;57.20;;;8.20;99.90;;;;;;5054964;28;20460;-75
2023/02/23 13:21:18;;;;;;;103.90;54.23;;;8.20;99.90;;;;;;5054325;28;21003;-75
2023/02/23 13:23:55;;;;;;;98.10;52.93;;;8.20;99.90;;;;;;5059247;28;20441;-77
2023/02/23 13:26:36;;;;;;;95.17;50.47;;;8.20;99.90;;;;;;5054595;28;20959;-77
2023/02/23 13:29:14;;;;;;;84.40;47.50;;;8.20;99.90;;;;;;5055202;28;20428;-77
2023/02/23 13:31:45;;;;;;;92.87;50.47;;;8.20;99.90;;;;;;5054476;28;20561;-76
2023/02/23 13:34:23;;;;;;;92.67;47.67;;;8.20;99.90;;;;;;5056079;28;20422;-76
2023/02/23 13:36:54;;;;;;;81.57;46.97;;;8.20;99.90;;;;;;5055643;28;20789;-76
2023/02/23 13:39:48;;;;;;;82.67;46.30;;;8.20;99.90;;;;;;5054214;28;20939;-76
2023/02/23 13:42:30;;;;;;;83.57;49.40;;;8.30;99.90;;;;;;5063169;28;20501;-77
2023/02/23 13:45:21;;;;;;;86.00;46.33;;;8.30;99.90;;;;;;5057779;28;20429;-76
2023/02/23 13:47:56;;;;;;;90.03;45.97;;;8.30;99.90;;;;;;5053992;28;20452;-76
2023/02/23 13:50:31;;;;;;;86.07;49.47;;;8.30;99.90;;;;;;5055552;28;20414;-77
2023/02/23 13:53:05;;;;;;;63.07;37.00;;;8.30;99.90;;;;;;5055744;28;20433;-77
2023/02/23 13:55:48;;;;;;;85.57;47.50;;;8.40;99.90;;;;;;5055266;28;20852;-76
2023/02/23 13:58:22;;;;;;;84.10;47.97;;;8.40;99.90;;;;;;5070730;28;20499;-76
2023/02/23 14:01:05;;;;;;;92.23;48.57;;;8.40;99.90;;;;;;5057428;28;20465;-77
2023/02/23 14:03:41;;;;;;;87.60;49.27;;;8.40;99.90;;;;;;5054984;28;20422;-77
2023/02/23 14:06:14;;;;;;;88.63;48.70;;;8.50;99.90;;;;;;5054846;28;20472;-76
2023/02/23 14:08:46;;;;;;;87.57;49.80;;;8.50;99.90;;;;;;5053481;28;20564;-77
2023/02/23 14:11:38;;;;;;;78.93;47.87;;;8.50;99.90;;;;;;5054701;28;20799;-77
2023/02/23 14:14:06;;;;;;;88.77;49.30;;;8.50;99.90;;;;;;5054676;28;20556;-77
2023/02/23 14:16:35;;;;;;;87.57;47.93;;;8.50;99.90;;;;;;5053193;28;20453;-77
2023/02/23 14:19:31;;;;;;;86.83;46.97;;;8.50;99.90;;;;;;5054393;28;20867;-77
2023/02/23 14:22:02;;;;;;;80.40;45.57;;;8.50;99.90;;;;;;5054412;28;20825;-77
2023/02/23 14:24:32;;;;;;;85.17;47.40;;;8.50;99.90;;;;;;5053065;28;20437;-77